Time;durP1;ratioP1;P1;durP2;ratioP2;P2;SDS_P1;SDS_P2;PMS_P1;PMS_P2;Temp;Humidity;BMP_temperature;BMP_pressure;BME280_temperature;BME280_humidity;BME280_pressure;Samples;Min_cycle;Max_cycle;Signal;HPM_P1;HPM_P2
2022/03/19 00:02:27;;;;;;;44.15;23.27;;;22.60;27.90;;;;;;6159503;28;82984;-75
2022/03/19 00:05:28;;;;;;;40.25;22.27;;;22.50;27.90;;;;;;6159755;28;82977;-75
2022/03/19 00:08:28;;;;;;;51.42;27.08;;;22.50;27.90;;;;;;6158095;28;83434;-76
2022/03/19 00:11:30;;;;;;;46.72;24.40;;;22.50;27.90;;;;;;6145316;28;83527;-78
2022/03/19 00:14:30;;;;;;;52.10;25.35;;;22.50;27.90;;;;;;6135159;28;83285;-79
2022/03/19 00:17:31;;;;;;;43.40;25.00;;;22.50;28.00;;;;;;6135615;28;89974;-78
2022/03/19 00:20:32;;;;;;;47.65;24.05;;;22.50;28.00;;;;;;6145169;28;83001;-78
2022/03/19 00:23:32;;;;;;;45.00;24.40;;;22.50;28.10;;;;;;6158713;28;83267;-78
2022/03/19 00:26:33;;;;;;;44.38;23.58;;;22.50;28.00;;;;;;6157183;28;82894;-78
2022/03/19 00:29:34;;;;;;;49.80;25.23;;;22.50;28.00;;;;;;6155940;28;86043;-79
2022/03/19 00:32:35;;;;;;;45.75;24.35;;;22.50;28.10;;;;;;6147268;28;83212;-78
2022/03/19 00:35:37;;;;;;;39.83;23.02;;;22.50;28.00;;;;;;6159099;28;83294;-78
2022/03/19 00:38:37;;;;;;;45.45;23.77;;;22.50;28.00;;;;;;6159282;28;82915;-79
2022/03/19 00:41:38;;;;;;;40.90;21.95;;;22.40;28.10;;;;;;6149855;28;83021;-78
2022/03/19 00:44:38;;;;;;;47.22;24.20;;;22.50;28.10;;;;;;6159210;28;82985;-77
2022/03/19 00:47:39;;;;;;;46.20;24.52;;;22.40;28.10;;;;;;6158682;28;83133;-78
2022/03/19 00:50:40;;;;;;;43.65;23.92;;;22.40;28.10;;;;;;6150276;28;83205;-78
2022/03/19 00:53:40;;;;;;;45.95;24.48;;;22.40;28.10;;;;;;6133445;28;83328;-77
2022/03/19 00:56:42;;;;;;;50.63;25.52;;;22.40;28.10;;;;;;6148990;28;83182;-76
2022/03/19 00:59:43;;;;;;;45.42;24.58;;;22.40;28.10;;;;;;6157867;28;88517;-74
2022/03/19 01:02:43;;;;;;;49.08;24.83;;;22.40;28.00;;;;;;6136061;28;83205;-76
2022/03/19 01:05:44;;;;;;;45.08;23.95;;;22.40;28.00;;;;;;6147129;28;83460;-76
2022/03/19 01:08:45;;;;;;;42.83;23.98;;;22.40;28.00;;;;;;6157192;28;83628;-76
2022/03/19 01:11:45;;;;;;;50.47;26.25;;;22.40;28.00;;;;;;6145473;28;83104;-79
2022/03/19 01:14:46;;;;;;;47.08;25.85;;;22.30;28.00;;;;;;6133761;28;83222;-80
2022/03/19 01:17:46;;;;;;;50.92;25.08;;;22.30;28.00;;;;;;6155074;28;82815;-78
2022/03/19 01:20:47;;;;;;;48.65;26.13;;;22.30;28.00;;;;;;6158580;28;83429;-77
2022/03/19 01:23:47;;;;;;;46.22;24.52;;;22.30;28.00;;;;;;6159726;28;82763;-79
2022/03/19 01:26:48;;;;;;;47.45;26.05;;;22.30;28.10;;;;;;6148173;28;82882;-77
2022/03/19 01:29:48;;;;;;;50.15;25.60;;;22.30;28.00;;;;;;6136954;28;82836;-77
2022/03/19 01:32:49;;;;;;;48.15;26.15;;;22.30;28.10;;;;;;6157713;28;85244;-77
2022/03/19 01:35:49;;;;;;;53.10;27.52;;;22.30;28.10;;;;;;6147824;28;83228;-77
2022/03/19 01:38:50;;;;;;;45.90;25.20;;;22.30;28.20;;;;;;6133930;28;83119;-76
2022/03/19 01:41:51;;;;;;;49.88;26.42;;;22.30;28.10;;;;;;6142239;28;83354;-77
2022/03/19 01:44:52;;;;;;;57.13;28.80;;;22.30;28.20;;;;;;6157664;28;82888;-77
2022/03/19 01:47:53;;;;;;;50.88;26.50;;;22.20;28.10;;;;;;6153324;28;83293;-77
2022/03/19 01:50:54;;;;;;;50.88;26.17;;;22.30;28.30;;;;;;6148209;28;83170;-77
2022/03/19 01:53:55;;;;;;;51.63;26.80;;;22.30;28.10;;;;;;6145301;28;83109;-77
2022/03/19 01:56:55;;;;;;;45.10;25.50;;;22.30;28.00;;;;;;6133469;28;83620;-76
2022/03/19 01:59:56;;;;;;;49.40;26.98;;;22.30;28.00;;;;;;6132395;28;83175;-77
2022/03/19 02:02:56;;;;;;;50.63;26.92;;;22.20;28.10;;;;;;6147361;28;86104;-77
2022/03/19 02:05:57;;;;;;;50.35;27.15;;;22.20;28.60;;;;;;6157506;28;83194;-77
2022/03/19 02:08:57;;;;;;;46.88;25.15;;;22.20;28.10;;;;;;6139784;28;83338;-77
2022/03/19 02:11:58;;;;;;;46.28;24.77;;;22.10;28.00;;;;;;6133208;28;83610;-77
2022/03/19 02:14:58;;;;;;;43.78;24.65;;;22.20;28.10;;;;;;6155951;28;83188;-78
2022/03/19 02:17:59;;;;;;;44.08;23.83;;;22.10;27.90;;;;;;6158656;28;83802;-79
2022/03/19 02:20:59;;;;;;;39.95;23.17;;;22.20;28.00;;;;;;6160129;28;83549;-79
2022/03/19 02:27:19;;;;;;;46.08;24.05;;;22.10;28.00;;;;;;6160798;28;83233;-78
2022/03/19 02:30:20;;;;;;;45.67;23.67;;;22.10;28.30;;;;;;6140697;28;83384;-80
2022/03/19 02:33:20;;;;;;;42.92;22.88;;;22.10;27.90;;;;;;6145957;28;83351;-80
2022/03/19 02:36:22;;;;;;;45.83;23.60;;;22.10;27.80;;;;;;6161650;28;83061;-80
2022/03/19 02:39:24;;;;;;;44.05;23.88;;;22.10;27.90;;;;;;6138006;28;82914;-80
2022/03/19 02:42:25;;;;;;;40.65;23.05;;;22.10;27.90;;;;;;6149684;28;83023;-79
2022/03/19 02:45:25;;;;;;;40.22;21.73;;;22.10;27.80;;;;;;6156894;28;83534;-78
2022/03/19 02:48:26;;;;;;;43.28;22.90;;;22.10;27.90;;;;;;6154908;28;82935;-77
2022/03/19 02:51:27;;;;;;;37.70;21.70;;;22.10;27.90;;;;;;6147660;28;83342;-76
2022/03/19 02:54:27;;;;;;;38.28;20.55;;;22.10;27.90;;;;;;6142766;28;82990;-75
2022/03/19 02:57:28;;;;;;;39.30;21.15;;;22.10;28.10;;;;;;6147421;28;82917;-76
2022/03/19 03:00:28;;;;;;;39.00;21.65;;;22.10;28.10;;;;;;6131231;28;83042;-76
2022/03/19 03:03:29;;;;;;;41.25;21.33;;;22.10;28.00;;;;;;6146474;28;83047;-75
2022/03/19 03:06:29;;;;;;;41.72;22.35;;;22.10;28.10;;;;;;6132000;28;83472;-74
2022/03/19 03:09:30;;;;;;;38.88;20.60;;;22.10;28.00;;;;;;6139960;28;84232;-73
2022/03/19 03:12:30;;;;;;;39.13;20.95;;;22.10;28.00;;;;;;6155849;28;83330;-75
2022/03/19 03:15:32;;;;;;;37.00;21.92;;;22.10;27.80;;;;;;6156663;28;83217;-77
2022/03/19 03:18:32;;;;;;;38.08;20.58;;;22.10;28.50;;;;;;6156805;28;83457;-77
2022/03/19 03:21:33;;;;;;;38.45;20.40;;;22.10;28.20;;;;;;6156125;28;84189;-77
2022/03/19 03:24:34;;;;;;;39.35;21.20;;;22.10;28.20;;;;;;6152232;28;83168;-77
2022/03/19 03:27:34;;;;;;;36.08;19.67;;;22.10;28.20;;;;;;6136717;28;82953;-77
2022/03/19 03:30:35;;;;;;;34.47;19.42;;;22.10;28.20;;;;;;6148828;28;82870;-75
2022/03/19 03:33:35;;;;;;;39.78;20.75;;;22.10;28.50;;;;;;6132068;28;83402;-74
2022/03/19 03:36:36;;;;;;;41.15;20.65;;;22.10;28.30;;;;;;6146243;28;83281;-76
2022/03/19 03:39:37;;;;;;;37.17;19.90;;;22.10;28.50;;;;;;6146429;28;84325;-75
2022/03/19 03:42:37;;;;;;;39.10;19.23;;;22.10;28.80;;;;;;6153444;28;82920;-73
2022/03/19 03:45:38;;;;;;;32.67;18.25;;;22.10;28.80;;;;;;6151053;28;83186;-73
2022/03/19 03:48:39;;;;;;;34.92;18.90;;;22.10;28.70;;;;;;6145726;28;83360;-76
2022/03/19 03:51:39;;;;;;;39.03;20.15;;;22.10;29.00;;;;;;6151467;28;83143;-74
2022/03/19 03:54:40;;;;;;;33.65;18.23;;;22.10;29.00;;;;;;6148036;28;83183;-73
2022/03/19 03:57:40;;;;;;;35.10;18.02;;;22.10;29.40;;;;;;6129924;28;83156;-74
2022/03/19 04:00:41;;;;;;;31.48;17.10;;;22.10;29.50;;;;;;6131369;28;83424;-74
2022/03/19 04:03:41;;;;;;;29.48;17.20;;;22.10;29.50;;;;;;6144098;28;84916;-73
2022/03/19 04:06:42;;;;;;;34.95;17.65;;;22.10;29.30;;;;;;6137478;28;82773;-73
2022/03/19 04:09:42;;;;;;;36.22;18.27;;;22.10;29.70;;;;;;6138457;28;83041;-72
2022/03/19 04:12:43;;;;;;;34.53;17.95;;;22.10;29.80;;;;;;6133364;28;83450;-73
2022/03/19 04:15:44;;;;;;;28.50;16.23;;;22.10;30.20;;;;;;6136775;28;83519;-74
2022/03/19 04:18:45;;;;;;;34.25;17.10;;;22.20;30.40;;;;;;6155204;28;83221;-74
2022/03/19 04:21:45;;;;;;;33.95;16.60;;;22.20;29.80;;;;;;6159280;28;83007;-76
2022/03/19 04:24:46;;;;;;;31.65;17.17;;;22.20;29.60;;;;;;6156194;28;83327;-74
2022/03/19 04:27:47;;;;;;;28.98;16.92;;;22.30;29.70;;;;;;6138052;28;83291;-73
2022/03/19 04:30:47;;;;;;;32.38;17.23;;;22.40;29.40;;;;;;6138249;28;83655;-74
2022/03/19 04:33:48;;;;;;;38.97;19.35;;;22.40;29.10;;;;;;6145012;28;83448;-74
2022/03/19 04:36:48;;;;;;;34.33;18.30;;;22.40;29.00;;;;;;6146098;28;82875;-76
2022/03/19 04:39:49;;;;;;;38.10;19.90;;;22.50;28.90;;;;;;6140621;28;83362;-76
2022/03/19 04:42:49;;;;;;;36.22;19.13;;;22.50;28.70;;;;;;6154686;28;83139;-76
2022/03/19 04:45:50;;;;;;;32.75;18.20;;;22.50;28.60;;;;;;6158813;28;82756;-74
2022/03/19 04:48:51;;;;;;;33.53;18.33;;;22.60;28.50;;;;;;6160010;28;83501;-78
2022/03/19 04:51:51;;;;;;;36.05;19.45;;;22.60;28.40;;;;;;6148465;28;82779;-78
2022/03/19 04:54:57;;;;;;;31.38;18.45;;;22.60;28.30;;;;;;6135616;28;83603;-76
2022/03/19 04:57:57;;;;;;;34.00;20.08;;;22.60;28.30;;;;;;6139631;28;83291;-77
2022/03/19 05:00:58;;;;;;;35.00;19.38;;;22.70;28.30;;;;;;6158362;28;82837;-77
2022/03/19 05:03:58;;;;;;;35.53;19.77;;;22.70;28.20;;;;;;6152381;28;83549;-77
2022/03/19 05:06:59;;;;;;;36.75;21.33;;;22.70;28.10;;;;;;6139744;28;83384;-74
2022/03/19 05:13:20;;;;;;;38.15;20.40;;;22.70;28.20;;;;;;6158335;28;83254;-74
2022/03/19 05:16:21;;;;;;;35.22;20.15;;;22.70;28.00;;;;;;6148692;28;83418;-76
2022/03/19 05:19:21;;;;;;;35.45;19.90;;;22.70;28.10;;;;;;6140595;28;84569;-75
2022/03/19 05:22:22;;;;;;;38.08;19.65;;;22.70;28.10;;;;;;6158372;28;83213;-76
2022/03/19 05:25:22;;;;;;;35.55;20.33;;;22.80;28.40;;;;;;6147860;28;83510;-66
2022/03/19 05:28:24;;;;;;;35.92;18.70;;;22.70;28.40;;;;;;6148351;28;83520;-73
2022/03/19 05:31:25;;;;;;;29.40;16.35;;;22.80;29.30;;;;;;6149884;28;83335;-67
2022/03/19 05:34:32;;;;;;;27.23;14.68;;;22.80;30.50;;;;;;6149813;28;83494;-67
2022/03/19 05:37:32;;;;;;;24.63;12.77;;;22.80;31.80;;;;;;6141973;28;83984;-68
2022/03/19 05:40:33;;;;;;;22.27;12.82;;;22.80;32.40;;;;;;6142189;28;82974;-75
2022/03/19 05:43:33;;;;;;;20.67;12.02;;;22.80;33.20;;;;;;6139738;28;83209;-78
2022/03/19 05:46:34;;;;;;;24.08;12.15;;;22.80;33.80;;;;;;6141888;28;83469;-74
2022/03/19 05:49:35;;;;;;;19.75;12.15;;;22.80;33.90;;;;;;6137886;28;83403;-72
2022/03/19 05:52:35;;;;;;;19.35;11.70;;;22.80;34.00;;;;;;6139160;28;84023;-74
2022/03/19 05:55:36;;;;;;;30.00;12.82;;;22.80;34.20;;;;;;6132889;28;84620;-72
2022/03/19 05:58:36;;;;;;;21.40;12.38;;;22.80;33.90;;;;;;6140024;28;83733;-68
2022/03/19 06:01:37;;;;;;;20.85;11.45;;;22.80;34.10;;;;;;6150963;28;84150;-72
2022/03/19 06:04:38;;;;;;;19.48;11.00;;;22.80;34.50;;;;;;6153931;28;83417;-76
2022/03/19 06:07:38;;;;;;;21.75;12.10;;;22.80;34.60;;;;;;6137808;28;83051;-72
2022/03/19 06:10:39;;;;;;;20.15;11.07;;;22.80;34.80;;;;;;6133038;28;82965;-72
2022/03/19 06:13:39;;;;;;;27.45;13.15;;;22.90;34.40;;;;;;6142948;28;83191;-74
2022/03/19 06:16:40;;;;;;;20.80;9.90;;;22.90;34.60;;;;;;6156868;28;83511;-76
2022/03/19 06:19:40;;;;;;;23.23;12.95;;;22.90;34.90;;;;;;6138815;28;82918;-78
2022/03/19 06:22:41;;;;;;;18.60;10.25;;;22.90;34.70;;;;;;6137819;28;83013;-81
2022/03/19 06:25:42;;;;;;;22.45;12.50;;;22.90;35.20;;;;;;6157389;28;88694;-80
2022/03/19 06:28:42;;;;;;;21.83;10.23;;;22.80;35.20;;;;;;6150071;28;83456;-77
2022/03/19 06:31:43;;;;;;;24.63;11.98;;;22.90;35.30;;;;;;6157181;28;83189;-76
2022/03/19 06:34:43;;;;;;;23.23;12.15;;;23.00;35.30;;;;;;6156097;28;82900;-79
2022/03/19 06:37:44;;;;;;;24.10;12.55;;;23.00;35.80;;;;;;6157123;28;84398;-80
2022/03/19 06:40:45;;;;;;;24.33;12.27;;;23.00;35.40;;;;;;6157061;28;84221;-76
2022/03/19 06:43:45;;;;;;;20.92;13.15;;;23.10;35.30;;;;;;6146261;28;83158;-81
2022/03/19 06:46:46;;;;;;;24.15;13.27;;;23.10;34.90;;;;;;6148008;28;84337;-76
2022/03/19 06:49:46;;;;;;;22.58;11.73;;;23.10;34.70;;;;;;6145871;28;83013;-74
2022/03/19 06:52:47;;;;;;;26.52;12.77;;;23.20;35.30;;;;;;6157390;28;83296;-78
2022/03/19 06:55:48;;;;;;;27.40;13.18;;;23.10;34.90;;;;;;6157110;28;83227;-78
2022/03/19 06:58:48;;;;;;;23.80;12.98;;;23.20;35.30;;;;;;6131431;28;83026;-72
2022/03/19 07:01:49;;;;;;;23.85;13.13;;;23.20;35.20;;;;;;6132875;28;83388;-76
2022/03/19 07:04:50;;;;;;;21.38;12.38;;;23.20;34.80;;;;;;6132579;28;83098;-76
2022/03/19 07:07:51;;;;;;;23.35;13.25;;;23.20;34.70;;;;;;6138218;28;83247;-75
2022/03/19 07:10:52;;;;;;;26.40;13.95;;;23.20;34.70;;;;;;6145270;28;83102;-75
2022/03/19 07:13:52;;;;;;;24.73;14.07;;;23.20;34.60;;;;;;6134776;28;83392;-74
2022/03/19 07:16:54;;;;;;;24.35;13.70;;;23.10;34.70;;;;;;6132133;28;83037;-75
2022/03/19 07:19:55;;;;;;;26.80;13.48;;;23.20;34.30;;;;;;6145889;28;85805;-81
2022/03/19 07:22:55;;;;;;;25.20;13.60;;;23.20;34.50;;;;;;6149446;28;83294;-79
2022/03/19 07:25:59;;;;;;;27.95;14.35;;;23.20;34.50;;;;;;6156256;28;83609;-76
2022/03/19 07:29:00;;;;;;;21.77;13.60;;;23.20;34.20;;;;;;6153581;28;83351;-71
2022/03/19 07:32:01;;;;;;;22.98;12.52;;;23.20;34.40;;;;;;6142012;28;83980;-82
2022/03/19 07:35:01;;;;;;;25.95;14.30;;;23.20;35.00;;;;;;6141663;28;83485;-75
2022/03/19 07:38:02;;;;;;;25.08;14.43;;;23.20;34.10;;;;;;6141932;28;82881;-75
2022/03/19 07:44:22;;;;;;;27.30;13.13;;;23.20;33.70;;;;;;6153020;28;88762;-78
2022/03/19 07:47:22;;;;;;;24.23;13.93;;;23.20;33.40;;;;;;6148677;28;83859;-81
2022/03/19 07:50:23;;;;;;;23.15;12.93;;;23.30;33.20;;;;;;6146751;28;83308;-79
2022/03/19 07:53:23;;;;;;;24.38;14.05;;;23.20;33.00;;;;;;6149221;28;83332;-78
2022/03/19 07:56:24;;;;;;;22.20;13.27;;;23.20;32.90;;;;;;6134520;28;83332;-81
2022/03/19 07:59:25;;;;;;;26.83;13.88;;;23.10;33.10;;;;;;6142415;28;82701;-76
2022/03/19 08:02:26;;;;;;;25.50;13.10;;;23.10;33.10;;;;;;6153283;28;84349;-79
2022/03/19 08:05:27;;;;;;;26.17;14.15;;;23.20;33.10;;;;;;6150578;28;83763;-82
2022/03/19 08:08:27;;;;;;;24.60;13.50;;;23.10;32.90;;;;;;6152758;28;83236;-82
2022/03/19 08:11:28;;;;;;;22.42;13.27;;;23.20;33.20;;;;;;6151249;28;83236;-80
2022/03/19 08:14:29;;;;;;;20.25;11.73;;;23.20;33.10;;;;;;6145858;28;83265;-79
2022/03/19 08:17:29;;;;;;;18.92;11.07;;;23.20;33.40;;;;;;6152407;28;83191;-76
2022/03/19 08:20:31;;;;;;;19.60;11.07;;;23.20;33.10;;;;;;6139088;28;83044;-76
2022/03/19 08:23:32;;;;;;;18.42;10.30;;;23.20;33.20;;;;;;6138361;28;82846;-77
2022/03/19 08:26:33;;;;;;;19.67;10.93;;;23.20;33.50;;;;;;6146929;28;83185;-71
2022/03/19 08:29:33;;;;;;;21.73;10.95;;;23.20;33.60;;;;;;6145264;28;83917;-65
2022/03/19 08:32:34;;;;;;;20.60;10.75;;;23.20;34.50;;;;;;6154751;28;83339;-68
2022/03/19 08:35:35;;;;;;;20.45;10.73;;;23.20;34.00;;;;;;6158457;28;82937;-67
2022/03/19 08:41:54;;;;;;;16.45;8.90;;;23.20;34.20;;;;;;6148625;28;87538;-66
2022/03/19 08:44:57;;;;;;;16.35;9.48;;;23.10;35.00;;;;;;6161175;28;80471;-67
2022/03/19 08:47:57;;;;;;;16.95;8.32;;;23.00;35.10;;;;;;6161195;28;80576;-72
2022/03/19 08:51:39;;;;;;;14.65;8.23;;;22.90;35.60;;;;;;6138572;28;80915;-68
2022/03/19 08:54:18;;;;;;;14.05;7.72;;;22.90;35.90;;;;;;6146565;28;80464;-67
2022/03/19 08:57:20;;;;;;;16.95;8.30;;;22.80;36.20;;;;;;6157653;28;80432;-77
2022/03/19 09:00:20;;;;;;;17.15;9.60;;;22.80;35.70;;;;;;6145897;28;81199;-67
2022/03/19 09:03:21;;;;;;;17.48;10.13;;;22.80;36.40;;;;;;6144744;28;80939;-79
2022/03/19 09:06:21;;;;;;;16.33;8.48;;;22.80;36.30;;;;;;6141786;28;83079;-75
2022/03/19 09:09:22;;;;;;;19.90;8.45;;;23.00;36.40;;;;;;6150780;28;82004;-78
2022/03/19 09:12:22;;;;;;;17.50;9.07;;;23.00;37.00;;;;;;6150131;28;80336;-68
2022/03/19 09:15:23;;;;;;;12.93;7.40;;;23.10;36.80;;;;;;6159210;28;80401;-76
2022/03/19 09:18:25;;;;;;;22.05;8.00;;;23.10;36.90;;;;;;6146760;28;87729;-76
2022/03/19 09:21:25;;;;;;;15.60;8.23;;;23.20;37.20;;;;;;6149245;28;82263;-74
2022/03/19 09:24:26;;;;;;;14.32;7.13;;;23.10;37.40;;;;;;6156092;28;80916;-76
2022/03/19 09:27:27;;;;;;;15.70;7.95;;;23.20;37.70;;;;;;6160207;28;80646;-77
2022/03/19 09:30:27;;;;;;;62.10;27.77;;;23.10;37.30;;;;;;6158093;28;80454;-76
2022/03/19 09:33:28;;;;;;;108.55;47.33;;;23.00;38.10;;;;;;6158679;28;82975;-66
2022/03/19 09:36:29;;;;;;;133.90;62.72;;;23.10;37.20;;;;;;6153158;28;83171;-78
2022/03/19 09:39:29;;;;;;;115.28;50.20;;;23.10;37.40;;;;;;6146292;28;83208;-78
2022/03/19 09:42:32;;;;;;;139.43;63.65;;;23.10;37.60;;;;;;6156770;28;83510;-77
2022/03/19 09:45:34;;;;;;;221.88;98.68;;;23.10;38.30;;;;;;6157814;28;83035;-79
2022/03/19 09:48:34;;;;;;;221.57;102.55;;;23.20;37.40;;;;;;6156374;28;83384;-72
2022/03/19 09:51:35;;;;;;;186.10;83.80;;;23.20;37.10;;;;;;6144140;28;87064;-76
2022/03/19 09:54:35;;;;;;;154.55;68.82;;;23.20;36.80;;;;;;6151095;28;85465;-76
2022/03/19 09:57:36;;;;;;;123.03;57.17;;;23.20;37.40;;;;;;6150521;28;83244;-76
2022/03/19 10:00:36;;;;;;;109.68;50.60;;;23.20;37.70;;;;;;6142234;28;82894;-77
2022/03/19 10:03:37;;;;;;;97.10;43.10;;;23.30;37.10;;;;;;6146588;28;82855;-77
2022/03/19 10:09:58;;;;;;;65.65;29.98;;;23.30;37.30;;;;;;6150087;28;82788;-77
2022/03/19 10:12:59;;;;;;;61.90;27.90;;;23.40;37.90;;;;;;6152524;28;88341;-74
2022/03/19 10:15:59;;;;;;;54.45;23.20;;;23.30;37.30;;;;;;6149473;28;83275;-76
2022/03/19 10:19:00;;;;;;;50.65;21.98;;;23.50;37.50;;;;;;6155049;28;84235;-75
2022/03/19 10:22:00;;;;;;;40.08;18.65;;;23.60;37.40;;;;;;6153364;28;83077;-77
2022/03/19 10:25:01;;;;;;;40.60;17.95;;;23.70;37.10;;;;;;6142923;28;83255;-76
2022/03/19 10:28:01;;;;;;;29.45;15.23;;;23.80;37.20;;;;;;6152469;28;82981;-77
2022/03/19 10:31:02;;;;;;;29.38;13.88;;;23.80;37.20;;;;;;6138994;28;82892;-77
2022/03/19 10:34:02;;;;;;;24.27;13.63;;;23.90;36.60;;;;;;6140473;28;83089;-73
2022/03/19 10:37:03;;;;;;;22.65;12.32;;;23.90;36.80;;;;;;6141782;28;83331;-72
2022/03/19 10:40:04;;;;;;;28.00;13.60;;;23.90;36.60;;;;;;6156937;28;83178;-71
2022/03/19 10:43:04;;;;;;;22.45;11.70;;;24.00;36.10;;;;;;6141477;28;84342;-72
2022/03/19 10:46:05;;;;;;;23.38;11.55;;;24.00;34.20;;;;;;6146889;28;83250;-70
2022/03/19 10:49:05;;;;;;;20.42;10.82;;;24.00;32.30;;;;;;6143853;28;83602;-72
2022/03/19 10:52:07;;;;;;;16.48;9.00;;;24.00;31.90;;;;;;6137893;28;82879;-74
2022/03/19 10:55:08;;;;;;;16.00;9.13;;;24.10;31.10;;;;;;6160013;28;81708;-74
2022/03/19 10:58:09;;;;;;;14.43;7.45;;;24.10;30.40;;;;;;6159308;28;87404;-71
2022/03/19 11:01:09;;;;;;;15.77;6.88;;;24.10;30.30;;;;;;6159756;28;81003;-70
2022/03/19 11:04:10;;;;;;;11.13;7.63;;;24.10;30.50;;;;;;6160064;28;80462;-72
2022/03/19 11:07:10;;;;;;;14.00;7.63;;;24.00;29.60;;;;;;6141617;28;80530;-73
2022/03/19 11:10:11;;;;;;;13.82;6.90;;;24.00;29.50;;;;;;6137892;28;80748;-72
2022/03/19 11:13:12;;;;;;;13.02;7.57;;;24.00;29.60;;;;;;6158998;28;80399;-72
2022/03/19 11:16:12;;;;;;;10.88;7.10;;;24.10;29.20;;;;;;6159763;28;80448;-74
2022/03/19 11:19:13;;;;;;;8.70;6.30;;;24.10;29.60;;;;;;6157544;28;80330;-73
2022/03/19 11:22:13;;;;;;;9.93;6.05;;;24.10;29.40;;;;;;6157922;28;80237;-70
2022/03/19 11:25:16;;;;;;;9.00;6.10;;;24.10;29.60;;;;;;6159000;28;80427;-70
2022/03/19 11:28:17;;;;;;;8.32;5.93;;;24.10;29.40;;;;;;6145763;28;80826;-77
2022/03/19 11:31:17;;;;;;;8.73;5.45;;;24.10;29.20;;;;;;6142810;28;80923;-73
2022/03/19 11:34:19;;;;;;;10.55;5.80;;;24.10;29.30;;;;;;6150337;28;80729;-72
2022/03/19 11:37:19;;;;;;;10.48;6.55;;;24.10;29.20;;;;;;6139875;28;80976;-73
2022/03/19 11:40:20;;;;;;;9.75;6.00;;;24.10;28.90;;;;;;6140143;28;80603;-73
2022/03/19 11:43:20;;;;;;;10.48;6.13;;;24.10;28.30;;;;;;6156747;28;80628;-72
2022/03/19 11:46:21;;;;;;;11.57;6.10;;;24.10;28.80;;;;;;6164024;28;80514;-71
2022/03/19 11:49:21;;;;;;;8.13;5.10;;;24.10;28.90;;;;;;6140053;28;81353;-74
2022/03/19 11:52:22;;;;;;;10.73;5.60;;;24.10;29.50;;;;;;6155866;28;80421;-74
2022/03/19 11:55:22;;;;;;;8.70;5.43;;;24.10;28.90;;;;;;6161124;28;80527;-76
2022/03/19 11:58:23;;;;;;;12.35;6.50;;;24.10;28.90;;;;;;6150855;28;80378;-73
2022/03/19 12:01:23;;;;;;;22.67;8.50;;;24.10;29.40;;;;;;6162822;28;80254;-73
2022/03/19 12:04:24;;;;;;;26.58;10.45;;;24.10;28.90;;;;;;6163438;28;81034;-68
2022/03/19 12:07:24;;;;;;;24.23;10.75;;;24.10;29.40;;;;;;6153438;28;83181;-75
2022/03/19 12:10:25;;;;;;;30.58;10.77;;;24.10;29.80;;;;;;6140894;28;83554;-74
2022/03/19 12:13:25;;;;;;;24.40;10.27;;;24.20;30.40;;;;;;6137708;28;83374;-73
2022/03/19 12:16:27;;;;;;;19.33;9.20;;;24.10;30.30;;;;;;6149293;28;83146;-75
2022/03/19 12:19:27;;;;;;;18.23;7.68;;;24.20;30.40;;;;;;6153672;28;82920;-65
2022/03/19 12:22:28;;;;;;;19.83;9.00;;;24.20;30.30;;;;;;6139127;28;80389;-73
2022/03/19 12:25:28;;;;;;;16.67;9.15;;;24.10;31.50;;;;;;6159674;28;80419;-73
2022/03/19 12:28:29;;;;;;;13.90;7.93;;;24.10;29.30;;;;;;6158270;28;87166;-70
2022/03/19 12:31:30;;;;;;;15.55;8.43;;;24.00;29.00;;;;;;6158560;28;80598;-73
2022/03/19 12:34:30;;;;;;;14.68;8.20;;;24.10;29.60;;;;;;6162333;28;80503;-73
2022/03/19 12:37:33;;;;;;;11.68;6.82;;;24.10;29.40;;;;;;6160979;28;80246;-72
2022/03/19 12:43:52;;;;;;;12.95;6.70;;;24.10;29.80;;;;;;6154646;28;80913;-75
2022/03/19 12:46:53;;;;;;;15.55;6.05;;;24.10;30.60;;;;;;6163326;28;80077;-77
2022/03/19 12:49:53;;;;;;;10.07;6.13;;;24.20;31.20;;;;;;6162737;28;80021;-74
2022/03/19 12:52:55;;;;;;;9.07;5.82;;;24.20;30.60;;;;;;6138377;28;81908;-74
2022/03/19 12:55:56;;;;;;;10.63;5.97;;;24.20;30.80;;;;;;6150834;28;80562;-73
2022/03/19 12:58:56;;;;;;;8.88;5.10;;;24.20;30.70;;;;;;6159053;28;80698;-72
2022/03/19 13:01:57;;;;;;;9.52;5.47;;;24.30;30.70;;;;;;6160641;28;80555;-71
2022/03/19 13:04:57;;;;;;;11.38;5.10;;;24.30;30.30;;;;;;6161461;28;80545;-76
2022/03/19 13:07:58;;;;;;;10.07;4.88;;;24.30;29.80;;;;;;6162091;28;80598;-78
2022/03/19 13:10:59;;;;;;;7.93;4.85;;;24.30;30.20;;;;;;6156743;28;80503;-78
2022/03/19 13:13:59;;;;;;;8.95;4.63;;;24.30;30.90;;;;;;6157585;28;80896;-78
2022/03/19 13:17:00;;;;;;;6.22;4.10;;;24.30;31.40;;;;;;6161702;28;80851;-79
2022/03/19 13:20:00;;;;;;;6.45;4.25;;;24.30;31.60;;;;;;6154520;28;81839;-78
2022/03/19 13:23:01;;;;;;;7.43;4.30;;;24.30;32.00;;;;;;6161009;28;80442;-75
2022/03/19 13:26:02;;;;;;;8.07;4.10;;;24.30;32.40;;;;;;6161609;28;80347;-77
2022/03/19 13:29:02;;;;;;;8.40;4.10;;;24.40;32.60;;;;;;6155877;28;80445;-79
2022/03/19 13:32:03;;;;;;;6.72;3.72;;;24.40;32.70;;;;;;6149328;28;80623;-80
2022/03/19 13:35:05;;;;;;;26.85;4.75;;;24.40;33.70;;;;;;6161112;28;80293;-78
2022/03/19 13:38:05;;;;;;;10.18;4.15;;;24.40;33.70;;;;;;6153394;28;80409;-70
2022/03/19 13:41:06;;;;;;;5.35;3.40;;;24.40;34.00;;;;;;6157919;28;80741;-78
2022/03/19 13:44:06;;;;;;;5.18;3.60;;;24.50;34.30;;;;;;6154447;28;80567;-79
2022/03/19 13:47:07;;;;;;;5.45;3.50;;;24.50;34.20;;;;;;6162749;28;80644;-76
2022/03/19 13:50:07;;;;;;;5.65;2.97;;;24.50;34.60;;;;;;6153856;28;81099;-75
2022/03/19 13:53:08;;;;;;;11.52;3.95;;;24.50;34.90;;;;;;6159501;28;80382;-75
2022/03/19 13:56:09;;;;;;;7.68;4.05;;;24.40;34.50;;;;;;6156976;28;80592;-75
2022/03/19 13:59:10;;;;;;;6.22;3.67;;;24.50;34.30;;;;;;6159305;28;81301;-76
2022/03/19 14:02:11;;;;;;;7.47;3.65;;;24.40;34.60;;;;;;6153621;28;80894;-79
2022/03/19 14:05:11;;;;;;;4.07;3.05;;;24.40;34.50;;;;;;6159457;28;80619;-76
2022/03/19 14:08:14;;;;;;;5.82;3.40;;;24.40;35.10;;;;;;6151259;28;81530;-76
2022/03/19 14:11:15;;;;;;;16.92;3.50;;;24.40;35.10;;;;;;6140860;28;80493;-74
2022/03/19 14:14:15;;;;;;;4.47;2.70;;;24.40;35.10;;;;;;6162072;28;80741;-76
2022/03/19 14:17:16;;;;;;;10.13;3.58;;;24.40;35.20;;;;;;6161307;28;81382;-74
2022/03/19 14:20:18;;;;;;;5.38;3.47;;;24.40;34.70;;;;;;6161765;28;80813;-74
2022/03/19 14:23:18;;;;;;;5.57;3.03;;;24.40;34.60;;;;;;6154055;28;83223;-74
2022/03/19 14:26:19;;;;;;;4.05;2.72;;;24.40;34.90;;;;;;6136803;28;80416;-75
2022/03/19 14:29:19;;;;;;;5.82;3.10;;;24.40;34.80;;;;;;6153411;28;80605;-74
2022/03/19 14:32:21;;;;;;;7.18;3.55;;;24.40;34.70;;;;;;6147692;28;80283;-74
2022/03/19 14:35:23;;;;;;;4.00;3.00;;;24.40;34.90;;;;;;6149231;28;80688;-74
2022/03/19 14:38:54;;;;;;;5.32;3.25;;;24.40;34.60;;;;;;6141594;28;84872;-74
2022/03/19 14:41:59;;;;;;;6.03;3.22;;;24.40;35.10;;;;;;6146124;28;80306;-77
2022/03/19 14:44:59;;;;;;;4.57;2.63;;;24.30;34.50;;;;;;6150393;28;80407;-76
2022/03/19 14:48:00;;;;;;;5.95;2.83;;;24.30;35.50;;;;;;6150898;28;80892;-77
2022/03/19 14:51:02;;;;;;;3.67;2.67;;;24.30;35.20;;;;;;6153775;28;81442;-71
2022/03/19 14:54:03;;;;;;;5.97;2.63;;;24.30;35.70;;;;;;6159762;28;81494;-75
2022/03/19 14:57:04;;;;;;;3.92;2.63;;;24.30;35.50;;;;;;6157397;28;80596;-72
2022/03/19 15:00:06;;;;;;;5.13;2.15;;;24.30;35.50;;;;;;6160451;28;80269;-72
2022/03/19 15:03:08;;;;;;;3.10;2.25;;;24.30;35.90;;;;;;6158023;28;80339;-75
2022/03/19 15:06:08;;;;;;;5.43;2.53;;;24.30;36.00;;;;;;6156777;28;83914;-75
2022/03/19 15:09:09;;;;;;;3.00;2.10;;;24.30;35.70;;;;;;6157901;28;84824;-74
2022/03/19 15:12:09;;;;;;;3.63;2.20;;;24.20;36.50;;;;;;6158484;28;80599;-67
2022/03/19 15:15:10;;;;;;;4.20;1.83;;;24.20;36.10;;;;;;6158155;28;81582;-74
2022/03/19 15:18:12;;;;;;;5.57;2.47;;;24.20;36.10;;;;;;6159953;28;80494;-72
2022/03/19 15:21:14;;;;;;;4.03;2.67;;;24.20;35.50;;;;;;6155078;28;80591;-73
2022/03/19 15:24:14;;;;;;;4.78;2.60;;;24.30;34.20;;;;;;6155676;28;80818;-71
2022/03/19 15:27:15;;;;;;;5.38;2.05;;;24.20;34.70;;;;;;6158402;28;80670;-72
2022/03/19 15:30:15;;;;;;;3.95;2.70;;;24.20;34.70;;;;;;6155195;28;80512;-72
2022/03/19 15:33:16;;;;;;;4.88;2.60;;;24.20;33.60;;;;;;6159124;28;80611;-71
2022/03/19 15:36:20;;;;;;;4.35;2.72;;;24.20;34.30;;;;;;6159341;28;81743;-70
2022/03/19 15:39:21;;;;;;;5.43;2.72;;;24.20;34.30;;;;;;6159515;28;80246;-72
2022/03/19 15:42:22;;;;;;;3.97;2.30;;;24.20;33.40;;;;;;6138989;28;80268;-72
2022/03/19 15:45:23;;;;;;;6.43;3.20;;;24.10;32.80;;;;;;6151950;28;81689;-73